Time;durP1;ratioP1;P1;durP2;ratioP2;P2;SDS_P1;SDS_P2;PMS_P1;PMS_P2;Temp;Humidity;BMP_temperature;BMP_pressure;BME280_temperature;BME280_humidity;BME280_pressure;Samples;Min_cycle;Max_cycle;Signal;HPM_P1;HPM_P2
2021/03/17 00:00:22;;;;;;;3.92;3.00;;;;;;;4.28;89.35;101091.66;5027878;28;20508;-68
2021/03/17 00:02:47;;;;;;;4.45;3.20;;;;;;;4.27;89.85;101085.59;5030223;28;20032;-69
2021/03/17 00:05:17;;;;;;;4.30;3.40;;;;;;;4.28;89.23;101082.03;5031537;28;20037;-68
2021/03/17 00:07:42;;;;;;;3.80;2.92;;;;;;;4.35;87.91;101075.47;5028805;28;20080;-69
2021/03/17 00:10:08;;;;;;;3.10;2.53;;;;;;;4.38;87.81;101072.63;5030419;28;20038;-69
2021/03/17 00:12:35;;;;;;;3.45;2.75;;;;;;;4.37;88.81;101070.97;5029884;28;20083;-68
2021/03/17 00:15:00;;;;;;;5.45;3.90;;;;;;;4.29;88.93;101069.78;5025469;28;20041;-68
2021/03/17 00:17:25;;;;;;;4.70;3.60;;;;;;;4.23;89.94;101074.47;5029293;28;20038;-69
2021/03/17 00:19:50;;;;;;;6.32;3.90;;;;;;;4.21;89.71;101070.25;5027449;28;20614;-68
2021/03/17 00:22:16;;;;;;;4.90;2.97;;;;;;;4.21;89.18;101065.03;5028891;28;20071;-69
2021/03/17 00:24:41;;;;;;;3.92;2.72;;;;;;;4.19;89.26;101072.13;5030719;28;20045;-68
2021/03/17 00:27:08;;;;;;;5.97;4.10;;;;;;;4.11;89.61;101069.19;5027809;28;20053;-68
2021/03/17 00:29:33;;;;;;;3.53;2.67;;;;;;;4.03;89.68;101065.25;5029175;28;20216;-69
2021/03/17 00:31:58;;;;;;;4.53;3.38;;;;;;;4.00;89.75;101059.38;5030790;28;20038;-69
2021/03/17 00:34:24;;;;;;;3.90;2.70;;;;;;;3.99;90.03;101061.16;5041913;28;20068;-69
2021/03/17 00:36:49;;;;;;;4.95;3.55;;;;;;;4.00;90.73;101056.75;5030461;28;20084;-69
2021/03/17 00:39:14;;;;;;;4.88;3.50;;;;;;;4.00;90.87;101067.22;5031208;28;20038;-69
2021/03/17 00:41:39;;;;;;;5.30;3.90;;;;;;;3.96;90.89;101061.34;5030092;28;20048;-68
2021/03/17 00:44:05;;;;;;;6.05;3.95;;;;;;;3.96;90.79;101060.53;5029393;28;20041;-69
2021/03/17 00:46:30;;;;;;;5.18;4.10;;;;;;;3.95;91.20;101061.44;5021162;28;20033;-69
2021/03/17 00:48:56;;;;;;;5.95;4.03;;;;;;;3.97;90.57;101062.19;5030536;28;20120;-68
2021/03/17 00:51:21;;;;;;;6.20;4.10;;;;;;;4.01;90.91;101061.06;5021945;28;20084;-69
2021/03/17 00:53:46;;;;;;;4.00;2.97;;;;;;;4.03;90.44;101056.59;5028791;28;20030;-69
2021/03/17 00:56:11;;;;;;;8.45;5.47;;;;;;;4.12;88.30;101052.53;5021087;28;20097;-69
2021/03/17 00:58:37;;;;;;;7.20;4.72;;;;;;;4.19;87.51;101049.41;5024959;28;20033;-69
2021/03/17 01:01:02;;;;;;;8.23;5.88;;;;;;;4.23;87.19;101050.91;5030085;28;20140;-69
2021/03/17 01:03:28;;;;;;;4.55;3.20;;;;;;;4.20;88.59;101053.72;5029909;28;20045;-69
2021/03/17 01:05:53;;;;;;;5.93;4.47;;;;;;;4.14;90.13;101058.50;5025155;28;20444;-68
2021/03/17 01:08:18;;;;;;;3.70;2.75;;;;;;;4.14;89.39;101051.47;5024836;28;20127;-69
2021/03/17 01:10:46;;;;;;;3.13;2.45;;;;;;;4.21;88.51;101052.78;5025857;28;20029;-69
2021/03/17 01:13:12;;;;;;;3.30;2.42;;;;;;;4.24;88.43;101054.34;5030908;28;20042;-69
2021/03/17 01:15:38;;;;;;;2.58;1.90;;;;;;;4.28;87.91;101048.00;5028474;28;20033;-69
2021/03/17 01:18:03;;;;;;;7.38;5.45;;;;;;;4.35;86.82;101044.03;5030169;28;20030;-69
2021/03/17 01:20:29;;;;;;;6.35;4.90;;;;;;;4.38;86.80;101041.22;5029399;28;20056;-69
2021/03/17 01:22:56;;;;;;;4.75;3.65;;;;;;;4.31;88.50;101047.78;5029036;28;20033;-68
2021/03/17 01:25:34;;;;;;;4.35;3.13;;;;;;;4.31;88.03;101045.16;5027699;28;20034;-69
2021/03/17 01:28:03;;;;;;;3.78;2.95;;;;;;;4.33;87.44;101045.91;5021829;28;20037;-69
2021/03/17 01:30:37;;;;;;;4.68;3.17;;;;;;;4.33;88.58;101045.91;5024782;28;20113;-69
2021/03/17 01:33:04;;;;;;;5.43;3.90;;;;;;;4.26;89.60;101048.09;5026990;28;20490;-68
2021/03/17 01:35:29;;;;;;;4.72;3.75;;;;;;;4.20;89.69;101052.88;5017498;28;20042;-69
2021/03/17 01:37:55;;;;;;;5.35;3.80;;;;;;;4.16;90.26;101047.00;5028712;28;20034;-68
2021/03/17 01:40:23;;;;;;;8.15;5.97;;;;;;;4.03;90.46;101046.13;5023627;28;20071;-69
2021/03/17 01:42:49;;;;;;;5.35;3.90;;;;;;;4.01;90.70;101048.81;5027774;28;20033;-69
2021/03/17 01:45:15;;;;;;;5.00;3.45;;;;;;;4.04;90.50;101050.41;5021506;28;20398;-69
2021/03/17 01:47:42;;;;;;;5.53;3.90;;;;;;;4.03;90.78;101052.19;5026112;28;20041;-68
2021/03/17 01:50:12;;;;;;;5.20;3.58;;;;;;;4.06;90.64;101055.53;5028730;28;20136;-68
2021/03/17 01:52:37;;;;;;;6.40;5.07;;;;;;;4.03;90.50;101046.94;5024994;28;20474;-69
2021/03/17 01:55:05;;;;;;;7.22;4.70;;;;;;;4.03;90.94;101056.59;5024761;28;20037;-68
2021/03/17 01:57:32;;;;;;;6.20;4.40;;;;;;;4.05;90.65;101054.69;5022008;28;20029;-69
2021/03/17 01:59:57;;;;;;;4.53;3.65;;;;;;;4.04;90.65;101059.06;5026842;28;20505;-69
2021/03/17 02:02:23;;;;;;;4.00;3.15;;;;;;;4.08;90.21;101054.50;5028511;28;20044;-69
2021/03/17 02:04:49;;;;;;;5.55;4.00;;;;;;;4.06;90.28;101050.31;5026667;28;20291;-68
2021/03/17 02:07:14;;;;;;;5.88;3.53;;;;;;;4.08;90.08;101054.50;5028732;28;20494;-69
2021/03/17 02:09:40;;;;;;;4.90;3.95;;;;;;;4.08;90.79;101054.50;5029302;28;20120;-69
2021/03/17 02:12:45;;;;;;;4.78;3.47;;;;;;;4.11;89.55;101050.84;5028355;28;20129;-70
2021/03/17 02:15:32;;;;;;;4.18;3.25;;;;;;;4.14;89.49;101045.41;5025918;28;20132;-69
2021/03/17 02:18:07;;;;;;;4.40;3.42;;;;;;;4.18;89.92;101050.34;5022605;28;20095;-69
2021/03/17 02:20:54;;;;;;;4.78;3.83;;;;;;;4.16;90.33;101049.63;5026763;28;20413;-69
2021/03/17 02:23:30;;;;;;;6.40;4.40;;;;;;;4.14;90.57;101048.03;5026931;28;20037;-69
2021/03/17 02:26:04;;;;;;;4.45;3.45;;;;;;;4.14;90.35;101053.28;5024019;28;20045;-69
2021/03/17 02:29:01;;;;;;;4.72;3.58;;;;;;;4.10;90.04;101044.78;5023523;28;20033;-69
2021/03/17 02:31:51;;;;;;;7.25;5.00;;;;;;;4.08;90.27;101049.28;5023566;28;20447;-69
2021/03/17 02:34:21;;;;;;;6.03;4.70;;;;;;;4.11;90.41;101045.63;5027891;28;20029;-69
2021/03/17 02:36:56;;;;;;;6.00;4.45;;;;;;;4.10;90.43;101044.78;5026194;28;20041;-69
2021/03/17 02:39:32;;;;;;;7.43;5.20;;;;;;;4.06;90.73;101043.28;5028532;28;20029;-69
2021/03/17 02:42:28;;;;;;;5.45;4.10;;;;;;;4.06;90.66;101035.44;5026957;28;20587;-69
2021/03/17 02:45:01;;;;;;;6.90;5.50;;;;;;;3.97;90.83;101039.47;5026059;28;20038;-69
2021/03/17 02:47:31;;;;;;;7.85;5.28;;;;;;;3.95;91.04;101040.50;5026336;28;20687;-69
2021/03/17 02:49:59;;;;;;;8.38;5.93;;;;;;;3.93;91.41;101037.13;5027952;28;20534;-69
2021/03/17 02:52:31;;;;;;;8.23;5.88;;;;;;;3.93;90.95;101039.75;5023025;28;20040;-69
2021/03/17 02:54:56;;;;;;;;;;;;;;;3.91;91.48;101039.00;5026740;28;20056;-69
2021/03/17 02:57:25;;;;;;;6.43;4.72;;;;;;;3.92;91.64;101040.72;5024052;28;20086;-69
2021/03/17 02:59:57;;;;;;;5.03;3.75;;;;;;;3.94;90.84;101042.28;5024372;28;20333;-69
2021/03/17 03:02:23;;;;;;;6.97;5.28;;;;;;;3.94;91.32;101036.22;5025348;28;20037;-68
2021/03/17 03:04:53;;;;;;;7.28;5.10;;;;;;;3.95;91.36;101043.13;5025349;28;20049;-68
2021/03/17 03:07:21;;;;;;;6.60;4.97;;;;;;;3.94;91.50;101039.66;5028304;28;20041;-68
2021/03/17 03:09:48;;;;;;;7.97;5.57;;;;;;;3.93;91.55;101051.09;5029903;28;20042;-69
2021/03/17 03:12:14;;;;;;;9.10;6.70;;;;;;;3.90;90.37;101042.56;5029538;28;20030;-69
2021/03/17 03:14:40;;;;;;;13.20;8.55;;;;;;;3.92;89.72;101044.16;5031529;28;20084;-69
2021/03/17 03:17:08;;;;;;;12.90;9.15;;;;;;;3.77;90.73;101045.97;5031053;28;20433;-69
2021/03/17 03:19:39;;;;;;;8.90;6.32;;;;;;;3.82;90.31;101053.53;5031525;28;20033;-69
2021/03/17 03:22:05;;;;;;;;;;;;;;;3.83;91.00;101055.19;5032211;28;20049;-69
2021/03/17 03:24:30;;;;;;;10.07;6.60;;;;;;;3.81;91.46;101052.69;5030572;28;20025;-69
2021/03/17 03:26:58;;;;;;;8.43;6.07;;;;;;;3.82;91.49;101058.75;5028799;28;20044;-68
2021/03/17 03:29:25;;;;;;;8.85;6.82;;;;;;;3.78;91.03;101063.31;5030523;28;20522;-69
2021/03/17 03:31:51;;;;;;;8.15;5.80;;;;;;;3.81;90.45;101057.06;5030637;28;20041;-68
2021/03/17 03:34:17;;;;;;;6.85;4.88;;;;;;;3.83;90.95;101053.41;5031655;28;20056;-69
2021/03/17 03:36:43;;;;;;;7.70;5.13;;;;;;;3.82;91.09;101059.59;5030838;28;20563;-69
2021/03/17 03:39:09;;;;;;;7.15;5.15;;;;;;;3.86;90.63;101051.53;5029716;28;20030;-69
2021/03/17 03:41:34;;;;;;;6.22;4.55;;;;;;;3.84;91.62;101062.13;5030315;28;20038;-69
2021/03/17 03:43:59;;;;;;;7.25;5.20;;;;;;;3.82;91.37;101067.44;5031164;28;20079;-69
2021/03/17 03:46:25;;;;;;;10.65;7.07;;;;;;;3.82;89.72;101064.81;5023693;28;20695;-68
2021/03/17 03:48:50;;;;;;;12.15;8.32;;;;;;;3.83;89.07;101063.88;5031211;28;20055;-68
2021/03/17 03:51:22;;;;;;;13.02;8.30;;;;;;;3.84;88.36;101067.34;5028437;28;20042;-69
2021/03/17 03:54:08;;;;;;;8.88;5.78;;;;;;;3.82;88.32;101069.22;5031729;28;20034;-68
2021/03/17 03:56:41;;;;;;;7.80;5.50;;;;;;;3.73;89.88;101081.06;5031063;28;20041;-68
2021/03/17 03:59:21;;;;;;;6.75;4.95;;;;;;;3.68;90.43;101080.53;5028072;28;20041;-69
2021/03/17 04:01:54;;;;;;;7.25;5.10;;;;;;;3.73;89.43;101075.00;5030696;28;20038;-69
2021/03/17 04:04:23;;;;;;;5.93;4.30;;;;;;;3.73;90.08;101080.25;5030266;28;20067;-68
2021/03/17 04:06:51;;;;;;;13.48;9.50;;;;;;;3.76;88.88;101080.88;5026622;28;20038;-69
2021/03/17 04:09:25;;;;;;;13.90;10.02;;;;;;;3.65;90.91;101085.09;5031148;28;20068;-69
2021/03/17 04:11:51;;;;;;;11.32;8.15;;;;;;;3.61;90.88;101085.28;5027335;28;20072;-69
2021/03/17 04:14:18;;;;;;;12.50;8.90;;;;;;;3.60;90.94;101090.63;5029247;28;20034;-69
2021/03/17 04:16:45;;;;;;;11.48;8.15;;;;;;;3.58;91.47;101082.03;5031435;28;20422;-68
2021/03/17 04:19:11;;;;;;;10.65;6.95;;;;;;;3.58;91.09;101080.25;5043258;28;20029;-69
2021/03/17 04:21:41;;;;;;;14.50;9.68;;;;;;;3.47;91.97;101085.28;5029458;28;20044;-69
2021/03/17 04:24:06;;;;;;;14.20;9.32;;;;;;;3.47;91.94;101085.28;5030985;28;20033;-69
2021/03/17 04:26:35;;;;;;;14.73;9.57;;;;;;;3.52;90.95;101088.44;5028178;28;20029;-68
2021/03/17 04:29:02;;;;;;;15.45;9.82;;;;;;;3.55;90.39;101093.50;5025345;28;20034;-69
2021/03/17 04:31:29;;;;;;;13.02;9.15;;;;;;;3.55;90.18;101090.91;5024781;28;20037;-69
2021/03/17 04:33:56;;;;;;;11.55;8.20;;;;;;;3.57;89.48;101086.38;5030271;28;20363;-68
2021/03/17 04:36:22;;;;;;;11.25;6.95;;;;;;;3.60;89.69;101086.22;5028228;28;20191;-68
2021/03/17 04:38:49;;;;;;;16.17;9.75;;;;;;;3.58;89.83;101092.47;5030276;28;20649;-69
2021/03/17 04:41:15;;;;;;;11.68;8.55;;;;;;;3.46;91.61;101086.22;5028029;28;20072;-69
2021/03/17 04:43:43;;;;;;;11.95;8.55;;;;;;;3.44;91.87;101095.94;5031142;28;20057;-68
2021/03/17 04:46:10;;;;;;;10.25;7.53;;;;;;;3.50;90.69;101094.72;5028348;28;20180;-68
2021/03/17 04:48:37;;;;;;;9.57;6.65;;;;;;;3.50;91.47;101097.31;5030399;28;20557;-68
2021/03/17 04:51:04;;;;;;;8.90;6.50;;;;;;;3.50;91.89;101099.94;5030201;28;20037;-68
2021/03/17 04:53:30;;;;;;;13.82;9.40;;;;;;;3.51;91.64;101101.63;5030674;28;20043;-68
2021/03/17 04:55:55;;;;;;;9.52;6.25;;;;;;;3.50;91.40;101107.78;5030363;28;20041;-68
2021/03/17 04:58:23;;;;;;;8.25;5.55;;;;;;;3.50;91.98;101106.00;5023593;28;20030;-68
2021/03/17 05:00:50;;;;;;;8.20;5.97;;;;;;;3.50;92.38;101110.41;5029028;28;20497;-68
2021/03/17 05:03:20;;;;;;;13.38;9.75;;;;;;;3.40;92.84;101105.72;5025857;28;20445;-67
2021/03/17 05:05:49;;;;;;;10.75;7.57;;;;;;;3.44;92.51;101106.38;5029134;28;20432;-68
2021/03/17 05:08:17;;;;;;;10.73;7.45;;;;;;;3.44;92.62;101106.38;5029496;28;20037;-68
2021/03/17 05:10:44;;;;;;;10.98;7.38;;;;;;;3.49;91.64;101099.09;5022601;28;20041;-68
2021/03/17 05:13:12;;;;;;;8.30;5.43;;;;;;;3.53;91.06;101097.16;5025403;28;20061;-68
2021/03/17 05:15:38;;;;;;;13.80;8.85;;;;;;;3.61;89.95;101100.97;5026784;28;20037;-68
2021/03/17 05:18:06;;;;;;;18.90;11.65;;;;;;;3.65;89.49;101098.16;5026439;28;20402;-68
2021/03/17 05:20:33;;;;;;;10.82;7.68;;;;;;;3.57;90.40;101096.00;5029016;28;20041;-68
2021/03/17 05:22:59;;;;;;;9.30;6.40;;;;;;;3.52;91.49;101098.06;5037623;28;20531;-68
2021/03/17 05:25:26;;;;;;;10.77;7.65;;;;;;;3.49;92.01;101099.09;5029705;28;20099;-68
2021/03/17 05:28:04;;;;;;;14.82;10.23;;;;;;;3.43;91.96;101099.47;5021155;28;20038;-70
2021/03/17 05:30:31;;;;;;;12.75;9.18;;;;;;;3.33;91.96;101106.16;5029014;28;20037;-68
2021/03/17 05:32:59;;;;;;;16.10;10.73;;;;;;;3.31;91.98;101106.28;5029462;28;20573;-70
2021/03/17 05:35:25;;;;;;;14.43;9.32;;;;;;;3.28;92.23;101103.00;5029632;28;20041;-68
2021/03/17 05:37:51;;;;;;;17.20;10.02;;;;;;;3.31;91.50;101105.41;5030525;28;20038;-68
2021/03/17 05:40:16;;;;;;;13.57;8.98;;;;;;;3.35;90.96;101115.59;5029203;28;20041;-67
2021/03/17 05:42:43;;;;;;;13.73;8.88;;;;;;;3.38;91.05;101118.06;5029448;28;20037;-68
2021/03/17 05:45:12;;;;;;;13.82;9.18;;;;;;;3.40;90.23;101113.56;5030257;28;20049;-68
2021/03/17 05:47:43;;;;;;;14.15;10.05;;;;;;;3.45;90.12;101122.91;5025973;28;20029;-68
2021/03/17 05:50:09;;;;;;;12.95;8.60;;;;;;;3.45;90.10;101118.50;5029464;28;20052;-68
2021/03/17 05:52:35;;;;;;;12.18;8.63;;;;;;;3.48;90.81;101113.13;5029243;28;20528;-68
2021/03/17 05:55:03;;;;;;;14.18;9.35;;;;;;;3.45;91.88;101123.75;5028915;28;20037;-68
2021/03/17 05:57:28;;;;;;;17.48;10.63;;;;;;;3.46;91.13;101129.84;5029091;28;20087;-68
2021/03/17 05:59:53;;;;;;;19.48;12.50;;;;;;;3.43;91.64;101124.75;5030194;28;20029;-68
2021/03/17 06:02:20;;;;;;;18.00;11.52;;;;;;;3.40;91.94;101133.63;5028842;28;20087;-70
2021/03/17 06:04:46;;;;;;;15.80;9.90;;;;;;;3.43;91.73;101125.59;5023073;28;20037;-70
2021/03/17 06:07:21;;;;;;;17.10;10.63;;;;;;;3.45;92.17;101126.34;5028625;28;20116;-68
2021/03/17 06:09:47;;;;;;;13.48;9.00;;;;;;;3.50;91.58;101121.69;5027366;28;20029;-68
2021/03/17 06:12:13;;;;;;;22.00;13.07;;;;;;;3.57;91.02;101133.47;5028756;28;20486;-68
2021/03/17 06:14:42;;;;;;;16.48;10.45;;;;;;;3.59;90.64;101130.75;5028947;28;20068;-68
2021/03/17 06:17:12;;;;;;;22.13;12.40;;;;;;;3.67;90.12;101138.13;5026671;28;20045;-68
2021/03/17 06:19:42;;;;;;;23.55;13.07;;;;;;;3.66;89.88;101136.47;5022866;28;20406;-68
2021/03/17 06:22:08;;;;;;;18.45;11.25;;;;;;;3.58;90.13;101135.16;5026166;28;20590;-68
2021/03/17 06:24:34;;;;;;;16.45;10.13;;;;;;;3.46;91.19;101135.06;5024586;28;20124;-68
2021/03/17 06:27:01;;;;;;;13.68;9.30;;;;;;;3.44;92.10;101139.53;5028831;28;20045;-68
2021/03/17 06:29:27;;;;;;;14.10;9.25;;;;;;;3.49;91.93;101140.09;5025205;28;20037;-68
2021/03/17 06:31:52;;;;;;;14.52;9.75;;;;;;;3.56;91.58;101142.25;5028680;28;20517;-68
2021/03/17 06:34:17;;;;;;;18.27;11.05;;;;;;;3.79;91.54;101150.47;5027966;28;20052;-68
2021/03/17 06:36:49;;;;;;;15.07;9.60;;;;;;;4.02;90.44;101159.56;5023996;28;20030;-68
2021/03/17 06:39:14;;;;;;;13.27;8.85;;;;;;;4.40;90.07;101159.78;5019496;28;20037;-68
2021/03/17 06:41:46;;;;;;;14.27;9.10;;;;;;;4.94;90.37;101158.16;5028221;28;20043;-68
2021/03/17 06:44:11;;;;;;;12.13;7.65;;;;;;;5.45;88.59;101158.25;5026165;28;20430;-69
2021/03/17 06:46:36;;;;;;;12.75;7.70;;;;;;;5.65;87.23;101160.38;5014287;28;20113;-68
2021/03/17 06:49:03;;;;;;;12.63;8.77;;;;;;;5.69;84.21;101155.75;5028488;28;20029;-68
2021/03/17 06:51:29;;;;;;;16.17;9.90;;;;;;;5.80;84.71;101168.16;5028285;28;20042;-68
2021/03/17 06:54:05;;;;;;;14.05;9.57;;;;;;;5.66;83.83;101175.19;5026925;28;20037;-68
2021/03/17 06:56:35;;;;;;;19.40;12.55;;;;;;;5.70;84.85;101181.91;5023120;28;20444;-68
2021/03/17 06:59:05;;;;;;;14.77;9.73;;;;;;;6.00;84.79;101185.19;5025495;28;20041;-68
2021/03/17 07:01:36;;;;;;;15.93;8.90;;;;;;;5.67;83.72;101181.25;5023698;28;20040;-68
2021/03/17 07:04:03;;;;;;;17.30;11.20;;;;;;;5.58;84.03;101190.59;5024920;28;20372;-68
2021/03/17 07:06:29;;;;;;;16.00;10.68;;;;;;;5.30;84.04;101181.09;5027591;28;20030;-68
2021/03/17 07:08:55;;;;;;;13.07;8.95;;;;;;;5.10;85.11;101185.03;5025638;28;20080;-68
2021/03/17 07:11:29;;;;;;;23.48;12.98;;;;;;;5.20;84.04;101185.28;5025853;28;20518;-68
2021/03/17 07:14:00;;;;;;;15.88;10.43;;;;;;;4.82;86.92;101180.75;5028818;28;20048;-68
2021/03/17 07:16:36;;;;;;;;;;;;;;;4.80;87.42;101188.69;5023999;28;20030;-68
2021/03/17 07:19:04;;;;;;;18.17;10.75;;;;;;;5.11;85.31;101186.72;5037369;28;19924;-68
2021/03/17 07:21:35;;;;;;;20.98;13.23;;;;;;;5.29;84.26;101190.75;5027741;28;20041;-68
2021/03/17 07:24:02;;;;;;;17.42;10.40;;;;;;;5.33;84.94;101192.22;5022532;28;20065;-68
2021/03/17 07:26:33;;;;;;;17.00;10.50;;;;;;;5.44;84.08;101185.44;5028491;28;20120;-68
2021/03/17 07:29:13;;;;;;;18.33;11.70;;;;;;;5.35;83.92;101186.06;5024832;28;20037;-69
2021/03/17 07:31:45;;;;;;;16.90;10.10;;;;;;;5.26;86.05;101188.31;5028026;28;20029;-69
2021/03/17 07:34:25;;;;;;;20.80;13.65;;;;;;;5.18;85.52;101181.94;5026480;28;20277;-70
2021/03/17 07:37:01;;;;;;;20.33;12.68;;;;;;;4.95;86.71;101176.38;5026277;28;20033;-69
2021/03/17 07:39:28;;;;;;;21.23;13.10;;;;;;;4.95;84.83;101170.31;5025130;28;20044;-69
2021/03/17 07:41:55;;;;;;;19.13;10.80;;;;;;;4.81;84.89;101169.41;5028084;28;20042;-70
2021/03/17 07:44:21;;;;;;;18.02;11.45;;;;;;;4.58;87.38;101177.91;5027469;28;20033;-69
2021/03/17 07:46:49;;;;;;;19.52;11.60;;;;;;;4.62;85.89;101179.38;5027246;28;20030;-69
2021/03/17 07:49:16;;;;;;;19.67;11.77;;;;;;;4.72;84.83;101184.88;5026674;28;20122;-70
2021/03/17 07:51:48;;;;;;;18.95;12.13;;;;;;;4.75;84.88;101184.72;5026663;28;20117;-69
2021/03/17 07:54:25;;;;;;;18.48;11.52;;;;;;;4.66;85.50;101186.13;5021027;28;20041;-69
2021/03/17 07:56:50;;;;;;;22.35;13.63;;;;;;;4.70;85.23;101178.94;5028646;28;20033;-69
2021/03/17 07:59:17;;;;;;;19.20;11.43;;;;;;;4.49;85.35;101178.50;5030944;28;20045;-69
2021/03/17 08:01:44;;;;;;;18.23;10.90;;;;;;;4.55;86.13;101189.41;5025634;28;20038;-68
2021/03/17 08:04:09;;;;;;;22.63;12.23;;;;;;;4.78;84.65;101180.09;5031866;28;20041;-68
2021/03/17 08:06:35;;;;;;;18.73;11.02;;;;;;;4.74;85.55;101175.97;5025972;28;20026;-68
2021/03/17 08:09:01;;;;;;;19.50;11.93;;;;;;;4.76;84.61;101176.72;5029395;28;20043;-68
2021/03/17 08:11:28;;;;;;;18.70;12.10;;;;;;;4.78;84.94;101180.09;5029273;28;20037;-68
2021/03/17 08:13:55;;;;;;;15.88;10.50;;;;;;;4.97;85.21;101177.13;5022791;28;20586;-68
2021/03/17 08:16:25;;;;;;;17.73;11.57;;;;;;;5.18;83.28;101176.69;5026607;28;20060;-68
2021/03/17 08:18:50;;;;;;;14.48;9.75;;;;;;;5.24;84.94;101177.13;5028901;28;20030;-68
2021/03/17 08:21:45;;;;;;;18.75;12.18;;;;;;;5.25;83.67;101180.56;5030803;28;20469;-68
2021/03/17 08:24:35;;;;;;;21.20;13.50;;;;;;;5.38;83.52;101178.81;5028791;28;20041;-68
2021/03/17 08:27:01;;;;;;;17.80;11.25;;;;;;;5.39;83.26;101177.06;5030344;28;20056;-68
2021/03/17 08:29:37;;;;;;;15.85;9.95;;;;;;;5.31;83.56;101174.91;5031469;28;20049;-68
2021/03/17 08:32:03;;;;;;;20.38;12.35;;;;;;;5.44;84.18;101183.66;5024566;28;20457;-68
2021/03/17 08:34:31;;;;;;;15.88;10.90;;;;;;;5.56;83.85;101175.91;5031034;28;20109;-68
2021/03/17 08:36:58;;;;;;;17.38;10.75;;;;;;;5.57;82.53;101170.53;5026806;28;20040;-68
2021/03/17 08:39:29;;;;;;;16.83;11.18;;;;;;;5.46;82.00;101166.03;5028628;28;20025;-68
2021/03/17 08:41:56;;;;;;;19.30;11.50;;;;;;;5.49;80.50;101168.44;5010449;28;20042;-68
2021/03/17 08:44:37;;;;;;;15.57;9.55;;;;;;;5.63;81.38;101164.91;5010856;28;20037;-68
2021/03/17 08:47:13;;;;;;;19.17;12.60;;;;;;;5.95;80.08;101164.50;5005808;28;20485;-68
2021/03/17 08:49:39;;;;;;;18.10;11.05;;;;;;;5.76;80.16;101159.63;5011951;28;20069;-69
2021/03/17 08:52:12;;;;;;;23.58;13.38;;;;;;;5.78;81.16;101168.25;5025589;28;20061;-69
2021/03/17 08:54:45;;;;;;;15.85;9.90;;;;;;;5.63;81.03;101166.69;5010594;28;20026;-69
2021/03/17 08:57:14;;;;;;;21.33;13.48;;;;;;;5.74;82.17;101172.88;5014342;28;20030;-68
2021/03/17 09:00:01;;;;;;;18.98;12.80;;;;;;;5.67;81.19;101170.75;5025731;28;20079;-69
2021/03/17 09:02:26;;;;;;;17.35;11.15;;;;;;;5.52;80.35;101170.03;5008294;28;20112;-69
2021/03/17 09:05:18;;;;;;;16.17;10.27;;;;;;;5.23;82.83;101172.81;5009453;28;20117;-69
2021/03/17 09:08:09;;;;;;;18.35;11.30;;;;;;;5.21;82.18;101179.09;5015284;28;20068;-69
2021/03/17 09:10:40;;;;;;;17.00;11.48;;;;;;;4.94;83.72;101179.13;5016952;28;20394;-68
2021/03/17 09:13:06;;;;;;;18.30;10.77;;;;;;;4.90;82.53;101192.41;5014213;28;20030;-69
2021/03/17 09:15:43;;;;;;;21.85;13.50;;;;;;;4.74;84.25;101189.09;5009998;28;20044;-69
2021/03/17 09:18:08;;;;;;;20.63;12.05;;;;;;;4.35;84.07;101195.06;5000086;28;20030;-70
2021/03/17 09:20:45;;;;;;;14.23;9.10;;;;;;;4.03;85.72;101198.72;5009020;28;20049;-69
2021/03/17 09:23:17;;;;;;;17.55;11.23;;;;;;;3.93;85.14;101196.75;5007403;28;20072;-69
2021/03/17 09:25:52;;;;;;;13.98;8.93;;;;;;;3.44;87.59;101204.91;5008104;28;20049;-70
2021/03/17 09:28:27;;;;;;;12.85;8.00;;;;;;;3.20;87.04;101197.53;5023247;28;20391;-70
2021/03/17 09:30:58;;;;;;;15.65;10.50;;;;;;;3.30;86.94;101198.69;5028164;28;20399;-69
2021/03/17 09:33:31;;;;;;;17.33;11.18;;;;;;;3.42;86.53;101197.13;5029086;28;20087;-69
2021/03/17 09:36:00;;;;;;;13.98;8.82;;;;;;;3.51;86.84;101193.97;5017715;28;20038;-69
2021/03/17 09:38:29;;;;;;;20.00;10.57;;;;;;;3.73;86.42;101196.16;5028240;28;20110;-71
2021/03/17 09:41:01;;;;;;;18.48;11.20;;;;;;;3.80;88.17;101194.03;5029913;28;20034;-72
2021/03/17 09:43:30;;;;;;;14.55;9.70;;;;;;;3.87;88.77;101190.13;5030667;28;20414;-70
2021/03/17 09:45:56;;;;;;;16.85;9.82;;;;;;;3.91;88.11;101193.38;5028988;28;20096;-70
2021/03/17 09:48:22;;;;;;;13.18;8.25;;;;;;;3.96;89.74;101194.78;5024923;28;20528;-70
2021/03/17 09:50:54;;;;;;;19.45;11.25;;;;;;;4.17;88.18;101192.66;5027374;28;20053;-70
2021/03/17 09:53:19;;;;;;;12.20;7.95;;;;;;;4.22;88.44;101198.44;5028595;28;20512;-70
2021/03/17 09:55:44;;;;;;;13.93;7.85;;;;;;;4.32;87.47;101196.09;5042807;28;20119;-70
2021/03/17 09:58:10;;;;;;;12.93;8.68;;;;;;;4.34;87.65;101199.47;5028535;28;20042;-71
2021/03/17 10:00:36;;;;;;;10.43;6.78;;;;;;;4.34;89.67;101201.22;5030280;28;20359;-70
2021/03/17 10:03:04;;;;;;;14.07;8.43;;;;;;;4.37;89.46;101188.78;5023717;28;20044;-70
2021/03/17 10:05:30;;;;;;;13.82;8.68;;;;;;;4.23;87.39;101194.03;5026912;28;20398;-70
2021/03/17 10:07:56;;;;;;;16.15;9.38;;;;;;;4.08;87.21;101193.22;5027548;28;20041;-70
2021/03/17 10:10:22;;;;;;;16.67;9.10;;;;;;;4.12;86.19;101201.69;5027121;28;20498;-70
2021/03/17 10:12:48;;;;;;;13.30;9.10;;;;;;;4.03;86.22;101196.09;5022162;28;20044;-70
2021/03/17 10:15:17;;;;;;;13.63;7.88;;;;;;;3.87;86.34;101194.50;5024760;28;20048;-70
2021/03/17 10:17:43;;;;;;;10.98;7.22;;;;;;;3.83;86.80;101196.44;5028934;28;20124;-72
2021/03/17 10:20:20;;;;;;;13.02;7.60;;;;;;;3.81;88.16;101193.94;5023376;28;20040;-72
2021/03/17 10:22:47;;;;;;;13.02;7.57;;;;;;;3.95;87.90;101195.72;5024338;28;20042;-70
2021/03/17 10:25:20;;;;;;;13.38;8.02;;;;;;;3.95;89.90;101193.09;5025922;28;20168;-69
2021/03/17 10:27:49;;;;;;;12.63;7.78;;;;;;;4.21;88.08;101196.75;5027755;28;20079;-69
2021/03/17 10:30:38;;;;;;;12.85;7.90;;;;;;;4.33;89.97;101187.28;5026617;28;20079;-69
2021/03/17 10:33:12;;;;;;;12.55;7.70;;;;;;;4.44;89.96;101195.31;5018781;28;20409;-69
2021/03/17 10:35:38;;;;;;;10.05;6.85;;;;;;;4.56;89.45;101179.78;5027104;28;20366;-69
2021/03/17 10:38:05;;;;;;;18.27;10.85;;;;;;;4.65;87.10;101181.84;5026838;28;20072;-69
2021/03/17 10:40:31;;;;;;;18.90;10.40;;;;;;;4.42;87.05;101176.25;5028991;28;20405;-69
2021/03/17 10:43:18;;;;;;;12.65;8.27;;;;;;;4.28;87.70;101173.66;5013070;28;20038;-69
2021/03/17 10:45:49;;;;;;;10.32;6.20;;;;;;;4.47;88.81;101166.31;5003500;28;20026;-70
2021/03/17 10:48:21;;;;;;;15.43;8.93;;;;;;;4.53;90.51;101169.50;5007955;28;20030;-70
2021/03/17 10:50:46;;;;;;;13.35;8.38;;;;;;;4.47;90.78;101173.34;5009673;28;20351;-70
2021/03/17 10:53:23;;;;;;;11.13;7.38;;;;;;;4.68;90.63;101171.16;5023363;28;20029;-70
2021/03/17 10:55:50;;;;;;;11.95;7.50;;;;;;;4.99;89.62;101163.94;5019244;28;20041;-69
2021/03/17 10:58:18;;;;;;;8.82;5.82;;;;;;;5.26;86.26;101166.50;5016725;28;20041;-69
2021/03/17 11:00:46;;;;;;;8.57;5.47;;;;;;;5.20;87.97;101161.69;5015185;28;20092;-69
2021/03/17 11:03:31;;;;;;;8.15;5.15;;;;;;;5.25;87.11;101156.97;5023697;28;20041;-69
2021/03/17 11:06:22;;;;;;;9.00;6.50;;;;;;;5.38;89.61;101163.06;5015591;28;20149;-69
2021/03/17 11:09:05;;;;;;;8.60;5.85;;;;;;;5.61;86.28;101156.28;5027312;28;20375;-70
2021/03/17 11:11:32;;;;;;;10.13;5.70;;;;;;;5.92;87.95;101155.03;5025515;28;20044;-70
2021/03/17 11:13:58;;;;;;;8.02;5.60;;;;;;;5.75;86.40;101160.59;5023139;28;20506;-69
2021/03/17 11:16:31;;;;;;;7.20;5.00;;;;;;;5.81;85.23;101159.31;5028218;28;20046;-69
2021/03/17 11:19:01;;;;;;;8.32;6.00;;;;;;;5.77;83.41;101150.84;5019861;28;20505;-72
2021/03/17 11:21:30;;;;;;;10.65;7.13;;;;;;;5.81;82.98;101152.28;5026271;28;20041;-71
2021/03/17 11:24:04;;;;;;;7.57;5.30;;;;;;;6.06;84.88;101155.88;5027867;28;20037;-72
2021/03/17 11:26:40;;;;;;;10.98;7.13;;;;;;;6.05;83.84;101148.94;5027374;28;20395;-73
2021/03/17 11:29:23;;;;;;;9.27;6.40;;;;;;;6.06;83.33;101137.50;5027926;28;20038;-71
2021/03/17 11:31:52;;;;;;;7.47;5.00;;;;;;;6.13;82.37;101146.63;5031829;28;20253;-70
2021/03/17 11:34:18;;;;;;;7.15;5.07;;;;;;;6.15;82.82;101132.44;5029974;28;20034;-71
2021/03/17 11:36:44;;;;;;;10.25;6.40;;;;;;;6.25;82.53;101132.63;5033024;28;20502;-70